Jette Viking Hv77 — 5QEP — position and weather

sailwx.info

Track history (hours):
 
Tides and Currents Weather Stations Pressure Air Temp Water Temp Dewpoint Dewpoint Depression Visibility Wind Speed Wind Dir Waves Ship Positions

Jette Viking Hv77

Last reported at 2014-Sep-21 01:32 UTC. Time now 2014-Sep-23 16:25 UTC.
Position N 57°30' E 010°30'.

Length 16 m.

Type: Fishing. MMSI: 220046000.

Date/timePositionNaut miles runAvg speedWind from/ knotsBaromVisibWave heightAir tempDewpointWater temp
2014-Sep-21 01:32N 57°30' E 010°30'0 0.0
2014-Sep-21 00:33N 57°30' E 010°30'0 0.0
2014-Sep-20 23:33N 57°30' E 010°30'0 0.0
2014-Sep-20 22:32N 57°30' E 010°30'0 0.0
2014-Sep-20 21:33N 57°30' E 010°30'0 0.0
2014-Sep-20 20:31N 57°30' E 010°30'0 0.0
2014-Sep-20 19:28N 57°30' E 010°30'0 0.0
2014-Sep-20 18:30N 57°30' E 010°30'0 0.0
2014-Sep-20 17:33N 57°30' E 010°30'0 0.0
2014-Sep-20 16:33N 57°30' E 010°30'0 0.0
2014-Sep-20 15:33N 57°30' E 010°30'0 0.0
2014-Sep-20 14:30N 57°30' E 010°30'0 0.0
2014-Sep-20 13:32N 57°30' E 010°30'0 0.0
2014-Sep-20 12:32N 57°30' E 010°30'0 0.0
2014-Sep-20 11:33N 57°30' E 010°30'0 0.0
2014-Sep-20 10:30N 57°30' E 010°30'0 0.0
2014-Sep-20 09:31N 57°30' E 010°30'0 0.0
2014-Sep-20 08:33N 57°30' E 010°30'0 0.0
2014-Sep-20 07:30N 57°30' E 010°30'0 0.0
2014-Sep-20 06:32N 57°30' E 010°30'0 0.0
2014-Sep-20 05:33N 57°30' E 010°30'0 0.0
2014-Sep-20 04:24N 57°30' E 010°30'0 0.0
2014-Sep-20 01:31N 57°30' E 010°30'0 0.0
2014-Sep-19 17:05N 57°30' E 010°30'0 0.0
2014-Sep-19 10:25N 57°30' E 010°30'0 0.0
2014-Sep-19 09:32N 57°30' E 010°30'0 0.0
2014-Sep-19 08:33N 57°30' E 010°30'0 0.0
2014-Sep-19 07:31N 57°30' E 010°30'0 0.0
2014-Sep-19 06:31N 57°30' E 010°30'0 0.0
2014-Sep-19 05:30N 57°30' E 010°30'0 0.0
2014-Sep-19 04:33N 57°30' E 010°30'0 0.0
2014-Sep-19 03:33N 57°30' E 010°30'0 0.0
2014-Sep-19 02:32N 57°30' E 010°30'0 0.0
2014-Sep-19 01:26N 57°30' E 010°30'0 0.0
2014-Sep-19 00:33N 57°30' E 010°30'0 0.0
2014-Sep-18 23:31N 57°30' E 010°30'0 0.0
2014-Sep-18 22:33N 57°30' E 010°30'14 0.7
2014-Sep-18 01:33N 57°43' E 010°35'0 0.0
2014-Sep-18 00:33N 57°43' E 010°35'0 0.0
2014-Sep-17 22:21N 57°43' E 010°35'0 0.0
2014-Sep-17 21:28N 57°43' E 010°35'0 0.0
2014-Sep-17 20:33N 57°43' E 010°35'19 1.3
2014-Sep-17 06:11N 58°01' E 010°22'2 2.5
2014-Sep-17 05:33N 57°59' E 010°23'3 2.6
2014-Sep-17 04:33N 57°57' E 010°24'5 5.2
2014-Sep-17 03:33N 57°53' E 010°30'10 1.4
2014-Sep-16 20:21N 57°43' E 010°35'0 0.0
2014-Sep-16 19:26N 57°43' E 010°35'14 1.2
2014-Sep-16 08:20N 57°30' E 010°30'0 0.0
2014-Sep-16 07:12N 57°30' E 010°30'0 0.0
2014-Sep-16 06:31N 57°30' E 010°30'0 0.0
2014-Sep-16 05:30N 57°30' E 010°30'0 0.1
2014-Sep-16 04:28N 57°30' E 010°30'2 2.0
2014-Sep-16 03:18N 57°30' E 010°34'0 0.0
2014-Sep-16 02:32N 57°30' E 010°35'10 1.6
2014-Sep-15 20:12N 57°36' E 010°48'2 2.4
2014-Sep-15 19:20N 57°35' E 010°45'1 0.1
2014-Sep-15 02:13N 57°36' E 010°46'1 0.2
2014-Sep-14 20:32N 57°36' E 010°47'3 2.5
2014-Sep-14 19:21N 57°34' E 010°42'8 0.2
2014-Sep-13 03:12N 57°30' E 010°30'0 0.0
2014-Sep-12 22:33N 57°30' E 010°30'0 0.0
2014-Sep-12 21:33N 57°30' E 010°30'0 0.0
2014-Sep-12 19:33N 57°30' E 010°30'0 0.0
2014-Sep-12 18:32N 57°30' E 010°30'0 0.0
2014-Sep-12 17:31N 57°30' E 010°30'0 0.0
2014-Sep-12 16:33N 57°30' E 010°30'0 0.0
2014-Sep-12 15:33N 57°30' E 010°30'0 0.0
2014-Sep-12 14:33N 57°30' E 010°30'0 0.0
2014-Sep-12 13:33N 57°30' E 010°30'0 0.0
2014-Sep-12 12:33N 57°30' E 010°30'0 0.0
2014-Sep-12 11:33N 57°30' E 010°30'0 0.0
2014-Sep-12 08:11N 57°30' E 010°30'0 0.0
2014-Sep-12 07:20N 57°30' E 010°30'0 0.0
2014-Sep-12 06:23N 57°30' E 010°30'0 0.2
2014-Sep-12 05:33N 57°30' E 010°30'1 1.2
2014-Sep-12 04:33N 57°30' E 010°32'3 2.7
2014-Sep-12 03:32N 57°31' E 010°37'2 2.4
2014-Sep-12 02:30N 57°32' E 010°41'3 2.5
2014-Sep-12 01:31N 57°35' E 010°41'1 0.8
2014-Sep-12 00:33N 57°35' E 010°40'4 2.6
2014-Sep-11 23:06N 57°31' E 010°40'1 0.9
2014-Sep-11 21:25N 57°32' E 010°41'2 2.5
2014-Sep-11 20:33N 57°34' E 010°41'1 0.6
2014-Sep-11 19:33N 57°34' E 010°40'3 2.6
2014-Sep-11 18:32N 57°32' E 010°40'3 2.6
2014-Sep-11 17:34N 57°29' E 010°40'5 4.7
2014-Sep-11 16:33N 57°30' E 010°32'1 0.1
2014-Sep-11 06:25N 57°29' E 010°33'1 1.4
2014-Sep-11 05:32N 57°29' E 010°36'  
Track history (hours):
 
Tides and Currents Weather Stations Pressure Air Temp Water Temp Dewpoint Dewpoint Depression Visibility Wind Speed Wind Dir Waves Ship Positions

Jette Viking Hv77

Last reported at 2014-Sep-21 01:32 UTC. Time now 2014-Sep-23 16:25 UTC.
Position N 57°30' E 010°30'.

Length 16 m.

Type: Fishing. MMSI: 220046000.

Date/timePositionNaut miles runAvg speedWind from/ knotsBaromVisibWave heightAir tempDewpointWater temp
2014-Sep-21 01:32N 57°30' E 010°30'0 0.0
2014-Sep-21 00:33N 57°30' E 010°30'0 0.0
2014-Sep-20 23:33N 57°30' E 010°30'0 0.0
2014-Sep-20 22:32N 57°30' E 010°30'0 0.0
2014-Sep-20 21:33N 57°30' E 010°30'0 0.0
2014-Sep-20 20:31N 57°30' E 010°30'0 0.0
2014-Sep-20 19:28N 57°30' E 010°30'0 0.0
2014-Sep-20 18:30N 57°30' E 010°30'0 0.0
2014-Sep-20 17:33N 57°30' E 010°30'0 0.0
2014-Sep-20 16:33N 57°30' E 010°30'0 0.0
2014-Sep-20 15:33N 57°30' E 010°30'0 0.0
2014-Sep-20 14:30N 57°30' E 010°30'0 0.0
2014-Sep-20 13:32N 57°30' E 010°30'0 0.0
2014-Sep-20 12:32N 57°30' E 010°30'0 0.0
2014-Sep-20 11:33N 57°30' E 010°30'0 0.0
2014-Sep-20 10:30N 57°30' E 010°30'0 0.0
2014-Sep-20 09:31N 57°30' E 010°30'0 0.0
2014-Sep-20 08:33N 57°30' E 010°30'0 0.0
2014-Sep-20 07:30N 57°30' E 010°30'0 0.0
2014-Sep-20 06:32N 57°30' E 010°30'0 0.0
2014-Sep-20 05:33N 57°30' E 010°30'0 0.0
2014-Sep-20 04:24N 57°30' E 010°30'0 0.0
2014-Sep-20 01:31N 57°30' E 010°30'0 0.0
2014-Sep-19 17:05N 57°30' E 010°30'0 0.0
2014-Sep-19 10:25N 57°30' E 010°30'0 0.0
2014-Sep-19 09:32N 57°30' E 010°30'0 0.0
2014-Sep-19 08:33N 57°30' E 010°30'0 0.0
2014-Sep-19 07:31N 57°30' E 010°30'0 0.0
2014-Sep-19 06:31N 57°30' E 010°30'0 0.0
2014-Sep-19 05:30N 57°30' E 010°30'0 0.0
2014-Sep-19 04:33N 57°30' E 010°30'0 0.0
2014-Sep-19 03:33N 57°30' E 010°30'0 0.0
2014-Sep-19 02:32N 57°30' E 010°30'0 0.0
2014-Sep-19 01:26N 57°30' E 010°30'0 0.0
2014-Sep-19 00:33N 57°30' E 010°30'0 0.0
2014-Sep-18 23:31N 57°30' E 010°30'0 0.0
2014-Sep-18 22:33N 57°30' E 010°30'14 0.7
2014-Sep-18 01:33N 57°43' E 010°35'0 0.0
2014-Sep-18 00:33N 57°43' E 010°35'0 0.0
2014-Sep-17 22:21N 57°43' E 010°35'0 0.0
2014-Sep-17 21:28N 57°43' E 010°35'0 0.0
2014-Sep-17 20:33N 57°43' E 010°35'19 1.3
2014-Sep-17 06:11N 58°01' E 010°22'2 2.5
2014-Sep-17 05:33N 57°59' E 010°23'3 2.6
2014-Sep-17 04:33N 57°57' E 010°24'5 5.2
2014-Sep-17 03:33N 57°53' E 010°30'10 1.4
2014-Sep-16 20:21N 57°43' E 010°35'0 0.0
2014-Sep-16 19:26N 57°43' E 010°35'14 1.2
2014-Sep-16 08:20N 57°30' E 010°30'0 0.0
2014-Sep-16 07:12N 57°30' E 010°30'0 0.0
2014-Sep-16 06:31N 57°30' E 010°30'0 0.0
2014-Sep-16 05:30N 57°30' E 010°30'0 0.1
2014-Sep-16 04:28N 57°30' E 010°30'2 2.0
2014-Sep-16 03:18N 57°30' E 010°34'0 0.0
2014-Sep-16 02:32N 57°30' E 010°35'10 1.6
2014-Sep-15 20:12N 57°36' E 010°48'2 2.4
2014-Sep-15 19:20N 57°35' E 010°45'1 0.1
2014-Sep-15 02:13N 57°36' E 010°46'1 0.2
2014-Sep-14 20:32N 57°36' E 010°47'3 2.5
2014-Sep-14 19:21N 57°34' E 010°42'8 0.2
2014-Sep-13 03:12N 57°30' E 010°30'0 0.0
2014-Sep-12 22:33N 57°30' E 010°30'0 0.0
2014-Sep-12 21:33N 57°30' E 010°30'0 0.0
2014-Sep-12 19:33N 57°30' E 010°30'0 0.0
2014-Sep-12 18:32N 57°30' E 010°30'0 0.0
2014-Sep-12 17:31N 57°30' E 010°30'0 0.0
2014-Sep-12 16:33N 57°30' E 010°30'0 0.0
2014-Sep-12 15:33N 57°30' E 010°30'0 0.0
2014-Sep-12 14:33N 57°30' E 010°30'0 0.0
2014-Sep-12 13:33N 57°30' E 010°30'0 0.0
2014-Sep-12 12:33N 57°30' E 010°30'0 0.0
2014-Sep-12 11:33N 57°30' E 010°30'0 0.0
2014-Sep-12 08:11N 57°30' E 010°30'0 0.0
2014-Sep-12 07:20N 57°30' E 010°30'0 0.0
2014-Sep-12 06:23N 57°30' E 010°30'0 0.2
2014-Sep-12 05:33N 57°30' E 010°30'1 1.2
2014-Sep-12 04:33N 57°30' E 010°32'3 2.7
2014-Sep-12 03:32N 57°31' E 010°37'2 2.4
2014-Sep-12 02:30N 57°32' E 010°41'3 2.5
2014-Sep-12 01:31N 57°35' E 010°41'1 0.8
2014-Sep-12 00:33N 57°35' E 010°40'4 2.6
2014-Sep-11 23:06N 57°31' E 010°40'1 0.9
2014-Sep-11 21:25N 57°32' E 010°41'2 2.5
2014-Sep-11 20:33N 57°34' E 010°41'1 0.6
2014-Sep-11 19:33N 57°34' E 010°40'3 2.6
2014-Sep-11 18:32N 57°32' E 010°40'3 2.6
2014-Sep-11 17:34N 57°29' E 010°40'5 4.7
2014-Sep-11 16:33N 57°30' E 010°32'1 0.1
2014-Sep-11 06:25N 57°29' E 010°33'1 1.4
2014-Sep-11 05:32N 57°29' E 010°36'  

Dump ship's entire track history